Time;durP1;ratioP1;P1;durP2;ratioP2;P2;SDS_P1;SDS_P2;PMS_P1;PMS_P2;Temp;Humidity;BMP_temperature;BMP_pressure;BME280_temperature;BME280_humidity;BME280_pressure;Samples;Min_cycle;Max_cycle;Signal;HPM_P1;HPM_P2
2022/12/21 00:01:37;;;;;;;12.05;5.53;;;;;;;;;;5015625;28;20018;-79
2022/12/21 00:04:23;;;;;;;9.07;5.35;;;;;;;;;;5025975;28;20058;-81
2022/12/21 00:07:09;;;;;;;10.35;6.00;;;;;;;;;;5016231;28;20515;-79
2022/12/21 00:09:54;;;;;;;8.60;5.45;;;;;;;;;;5028884;28;20041;-77
2022/12/21 00:12:40;;;;;;;8.32;5.63;;;;;;;;;;5006363;28;20156;-77
2022/12/21 00:15:25;;;;;;;9.52;4.45;;;;;;;;;;5017456;28;20488;-73
2022/12/21 00:18:10;;;;;;;7.65;5.00;;;;;;;;;;5030568;22;20059;-74
2022/12/21 00:20:57;;;;;;;8.98;4.60;;;;;;;;;;5062431;28;20036;-73
2022/12/21 00:23:43;;;;;;;10.30;5.03;;;;;;;;;;5054170;28;20028;-73
2022/12/21 00:26:32;;;;;;;7.75;4.13;;;;;;;;;;5054651;28;20434;-73
2022/12/21 00:29:17;;;;;;;8.25;4.05;;;;;;;;;;5061136;28;20032;-73
2022/12/21 00:32:03;;;;;;;8.38;4.38;;;;;;;;;;5051952;28;20072;-74
2022/12/21 00:34:48;;;;;;;7.82;4.57;;;;;;;;;;5056423;28;20028;-70
2022/12/21 00:37:33;;;;;;;6.38;3.60;;;;;;;;;;5051836;28;20028;-74
2022/12/21 00:40:18;;;;;;;6.95;3.50;;;;;;;;;;5035349;28;20084;-72
2022/12/21 00:43:04;;;;;;;7.53;3.70;;;;;;;;;;5054104;28;20086;-73
2022/12/21 00:45:49;;;;;;;7.30;4.55;;;;;;;;;;5053282;28;20089;-72
2022/12/21 00:48:35;;;;;;;8.73;3.85;;;;;;;;;;5049996;28;20511;-72
2022/12/21 00:51:21;;;;;;;7.18;3.85;;;;;;;;;;5054147;28;20039;-76
2022/12/21 00:54:06;;;;;;;7.30;3.67;;;;;;;;;;5051880;28;20024;-76
2022/12/21 00:56:51;;;;;;;11.13;4.10;;;;;;;;;;5057540;28;20106;-78
2022/12/21 00:59:37;;;;;;;6.43;3.42;;;;;;;;;;5048568;28;20482;-77
2022/12/21 01:02:22;;;;;;;11.77;3.42;;;;;;;;;;5062591;28;20069;-76
2022/12/21 01:05:07;;;;;;;5.57;3.08;;;;;;;;;;5050219;28;20641;-76
2022/12/21 01:07:52;;;;;;;6.38;3.58;;;;;;;;;;5059945;28;20073;-75
2022/12/21 01:10:37;;;;;;;5.47;2.95;;;;;;;;;;5053887;28;20036;-76
2022/12/21 01:13:23;;;;;;;8.23;3.47;;;;;;;;;;5046122;28;20089;-71
2022/12/21 01:16:15;;;;;;;9.80;2.90;;;;;;;;;;5033388;28;20536;-70
2022/12/21 01:19:02;;;;;;;7.10;3.72;;;;;;;;;;5052476;28;20161;-72
2022/12/21 01:21:48;;;;;;;6.22;3.17;;;;;;;;;;5059647;28;20107;-74
2022/12/21 01:24:33;;;;;;;8.50;3.58;;;;;;;;;;5052482;28;20479;-71
2022/12/21 01:27:18;;;;;;;8.98;4.32;;;;;;;;;;5054046;28;20040;-72
2022/12/21 01:30:04;;;;;;;4.03;2.67;;;;;;;;;;5055779;28;20055;-76
2022/12/21 01:32:49;;;;;;;4.38;2.25;;;;;;;;;;5047353;28;20021;-77
2022/12/21 01:35:38;;;;;;;8.07;3.42;;;;;;;;;;5041708;28;20067;-80
2022/12/21 01:38:24;;;;;;;6.10;3.05;;;;;;;;;;5049583;28;20227;-78
2022/12/21 01:41:17;;;;;;;4.30;2.90;;;;;;;;;;5046738;28;20043;-77
2022/12/21 01:44:04;;;;;;;4.97;3.00;;;;;;;;;;5063785;28;20104;-79
2022/12/21 01:46:49;;;;;;;4.20;2.75;;;;;;;;;;5059020;28;20041;-78
2022/12/21 01:49:35;;;;;;;7.97;3.05;;;;;;;;;;5050645;28;20049;-77
2022/12/21 01:52:20;;;;;;;4.82;3.28;;;;;;;;;;5056998;28;20565;-77
2022/12/21 01:55:05;;;;;;;6.43;3.05;;;;;;;;;;5046968;28;20088;-76
2022/12/21 01:57:51;;;;;;;7.53;2.78;;;;;;;;;;5052928;28;20475;-79
2022/12/21 02:00:37;;;;;;;5.38;2.75;;;;;;;;;;5046976;28;20027;-77
2022/12/21 02:03:24;;;;;;;7.45;2.83;;;;;;;;;;5050742;28;20564;-77
2022/12/21 02:06:13;;;;;;;5.53;3.53;;;;;;;;;;5057400;28;20564;-73
2022/12/21 02:08:59;;;;;;;5.72;2.80;;;;;;;;;;5051502;28;20132;-77
2022/12/21 02:11:44;;;;;;;5.03;3.00;;;;;;;;;;5036448;28;20036;-77
2022/12/21 02:14:32;;;;;;;5.10;2.65;;;;;;;;;;5059489;28;20040;-76
2022/12/21 02:17:36;;;;;;;4.60;2.70;;;;;;;;;;5048858;28;20028;-78
2022/12/21 02:20:35;;;;;;;6.20;2.85;;;;;;;;;;5037195;28;20497;-78
2022/12/21 02:23:26;;;;;;;5.32;2.95;;;;;;;;;;5045805;28;20044;-73
2022/12/21 02:26:30;;;;;;;4.82;3.13;;;;;;;;;;5055872;28;20020;-78
2022/12/21 02:29:25;;;;;;;6.63;3.17;;;;;;;;;;5044511;28;20029;-78
2022/12/21 02:32:22;;;;;;;6.35;2.92;;;;;;;;;;5038681;28;20040;-78
2022/12/21 02:35:07;;;;;;;5.53;3.17;;;;;;;;;;5041765;28;20415;-78
2022/12/21 02:38:11;;;;;;;4.63;2.95;;;;;;;;;;5057783;28;20048;-76
2022/12/21 02:41:08;;;;;;;4.68;3.00;;;;;;;;;;5049373;28;20487;-76
2022/12/21 02:44:15;;;;;;;5.25;3.10;;;;;;;;;;5056123;28;20302;-76
2022/12/21 02:47:07;;;;;;;5.03;2.78;;;;;;;;;;5049287;28;20027;-73
2022/12/21 02:49:57;;;;;;;10.35;2.80;;;;;;;;;;5049458;28;20035;-73
2022/12/21 02:52:42;;;;;;;5.07;2.60;;;;;;;;;;5052274;28;20039;-74
2022/12/21 02:55:27;;;;;;;6.40;2.95;;;;;;;;;;5053806;28;20044;-73
2022/12/21 02:58:13;;;;;;;9.70;2.92;;;;;;;;;;5053080;28;20475;-72
2022/12/21 03:01:01;;;;;;;4.85;3.03;;;;;;;;;;5047093;28;20040;-76
2022/12/21 03:03:59;;;;;;;4.60;2.78;;;;;;;;;;5046702;28;20534;-75
2022/12/21 03:06:54;;;;;;;9.32;3.65;;;;;;;;;;5052267;28;20040;-77
2022/12/21 03:09:39;;;;;;;5.60;3.08;;;;;;;;;;5059709;28;20327;-75
2022/12/21 03:12:41;;;;;;;6.97;3.00;;;;;;;;;;5058357;28;20040;-76
2022/12/21 03:15:31;;;;;;;4.78;2.67;;;;;;;;;;5047336;28;20036;-75
2022/12/21 03:18:32;;;;;;;6.88;2.97;;;;;;;;;;5053216;28;20516;-70
2022/12/21 03:21:22;;;;;;;7.07;3.00;;;;;;;;;;5041109;28;20059;-78
2022/12/21 03:24:16;;;;;;;7.13;3.03;;;;;;;;;;5048627;28;20032;-78
2022/12/21 03:27:06;;;;;;;8.15;2.60;;;;;;;;;;5052525;28;20580;-77
2022/12/21 03:30:02;;;;;;;4.15;2.80;;;;;;;;;;5044411;28;20033;-77
2022/12/21 03:32:48;;;;;;;3.92;2.88;;;;;;;;;;5049154;28;20097;-77
2022/12/21 03:35:33;;;;;;;4.78;2.72;;;;;;;;;;5053251;28;20048;-77
2022/12/21 03:38:21;;;;;;;4.60;3.17;;;;;;;;;;5042535;28;20079;-76
2022/12/21 03:41:09;;;;;;;7.40;3.10;;;;;;;;;;5052048;28;20199;-71
2022/12/21 03:43:57;;;;;;;5.10;3.08;;;;;;;;;;5051111;28;20028;-70
2022/12/21 03:46:52;;;;;;;6.22;3.28;;;;;;;;;;5062430;28;20472;-70
2022/12/21 03:49:41;;;;;;;5.22;3.65;;;;;;;;;;5049992;28;20044;-71
2022/12/21 03:52:33;;;;;;;4.30;2.90;;;;;;;;;;5046467;28;20534;-70
2022/12/21 03:55:27;;;;;;;6.72;3.08;;;;;;;;;;5054052;28;20031;-69
2022/12/21 03:58:13;;;;;;;5.00;3.17;;;;;;;;;;5058253;28;20479;-71
2022/12/21 04:01:06;;;;;;;6.03;2.72;;;;;;;;;;5042365;28;20107;-73
2022/12/21 04:03:54;;;;;;;12.80;3.38;;;;;;;;;;5042427;28;20502;-72
2022/12/21 04:06:40;;;;;;;6.47;3.30;;;;;;;;;;5053210;28;20037;-72
2022/12/21 04:09:25;;;;;;;5.13;2.80;;;;;;;;;;5054079;28;20119;-72
2022/12/21 04:15:18;;;;;;;5.88;2.72;;;;;;;;;;5059081;28;20028;-71
2022/12/21 04:18:03;;;;;;;4.80;2.60;;;;;;;;;;5051393;28;20036;-72
2022/12/21 04:20:48;;;;;;;4.80;2.97;;;;;;;;;;5053729;28;20063;-72
2022/12/21 04:29:41;;;;;;;6.38;2.78;;;;;;;;;;5056725;28;20127;-71
2022/12/21 04:32:26;;;;;;;9.02;3.45;;;;;;;;;;5051601;28;20039;-73
2022/12/21 04:35:12;;;;;;;7.30;3.05;;;;;;;;;;5058418;28;20444;-70
2022/12/21 04:37:57;;;;;;;6.85;3.05;;;;;;;;;;5070370;28;20551;-72
2022/12/21 04:40:42;;;;;;;4.88;2.70;;;;;;;;;;5056381;28;20116;-71
2022/12/21 04:43:28;;;;;;;9.07;3.00;;;;;;;;;;5051539;28;20037;-73
2022/12/21 04:46:14;;;;;;;4.40;2.70;;;;;;;;;;5065254;28;20032;-71
2022/12/21 04:48:59;;;;;;;5.95;3.28;;;;;;;;;;5054988;28;20072;-71
2022/12/21 04:51:44;;;;;;;8.15;3.83;;;;;;;;;;5050247;28;20375;-77
2022/12/21 04:54:30;;;;;;;5.93;3.35;;;;;;;;;;5042006;28;20044;-79
2022/12/21 04:57:16;;;;;;;7.47;3.47;;;;;;;;;;5055769;28;20033;-77
2022/12/21 05:00:02;;;;;;;7.60;2.97;;;;;;;;;;5044542;28;20024;-78
2022/12/21 05:02:47;;;;;;;6.53;3.40;;;;;;;;;;5047308;28;20050;-80
2022/12/21 05:05:33;;;;;;;4.57;2.75;;;;;;;;;;5049974;28;20033;-79
2022/12/21 05:08:18;;;;;;;8.77;3.72;;;;;;;;;;5047149;28;20136;-70
2022/12/21 05:11:10;;;;;;;8.55;3.20;;;;;;;;;;5053939;28;20052;-76
2022/12/21 05:13:57;;;;;;;5.72;2.85;;;;;;;;;;5044688;28;20044;-77
2022/12/21 05:16:42;;;;;;;6.13;3.28;;;;;;;;;;5066167;28;20372;-75
2022/12/21 05:19:28;;;;;;;6.68;3.13;;;;;;;;;;5067562;28;20043;-79
2022/12/21 05:22:16;;;;;;;8.38;2.85;;;;;;;;;;5052568;28;20028;-78
2022/12/21 05:25:01;;;;;;;7.15;3.92;;;;;;;;;;5071249;28;20059;-78
2022/12/21 05:27:46;;;;;;;9.63;3.35;;;;;;;;;;5067402;28;20028;-72
2022/12/21 05:30:33;;;;;;;5.88;2.95;;;;;;;;;;5057295;28;20097;-76
2022/12/21 05:33:18;;;;;;;5.45;3.58;;;;;;;;;;5061983;28;20467;-76
2022/12/21 05:36:04;;;;;;;6.82;2.95;;;;;;;;;;5045545;28;20032;-76
2022/12/21 05:38:49;;;;;;;6.50;2.95;;;;;;;;;;5045040;28;20544;-77
2022/12/21 05:41:34;;;;;;;9.98;3.13;;;;;;;;;;5052356;28;20051;-77
2022/12/21 05:44:20;;;;;;;9.80;3.53;;;;;;;;;;5051562;28;20036;-77
2022/12/21 05:47:05;;;;;;;4.43;2.53;;;;;;;;;;5050298;28;20044;-71
2022/12/21 05:49:51;;;;;;;5.45;2.80;;;;;;;;;;5061325;28;20050;-71
2022/12/21 05:52:37;;;;;;;7.85;2.88;;;;;;;;;;5053286;28;20483;-70
2022/12/21 05:55:22;;;;;;;7.32;2.80;;;;;;;;;;5055678;28;20039;-70
2022/12/21 05:58:07;;;;;;;7.35;3.42;;;;;;;;;;5062681;28;20029;-69
2022/12/21 06:00:52;;;;;;;6.30;3.03;;;;;;;;;;5045221;28;20029;-70
2022/12/21 06:03:38;;;;;;;6.47;2.90;;;;;;;;;;5054215;28;20039;-77
2022/12/21 06:06:23;;;;;;;11.00;3.28;;;;;;;;;;5032058;28;20144;-71
2022/12/21 06:09:08;;;;;;;6.03;2.80;;;;;;;;;;5048496;28;20032;-74
2022/12/21 06:11:54;;;;;;;9.93;3.10;;;;;;;;;;5054792;28;20043;-72
2022/12/21 06:14:39;;;;;;;5.35;2.65;;;;;;;;;;5054198;28;20375;-71
2022/12/21 06:17:28;;;;;;;10.13;3.28;;;;;;;;;;5050154;28;20490;-71
2022/12/21 06:20:15;;;;;;;4.28;2.55;;;;;;;;;;5058442;28;20023;-70
2022/12/21 06:23:00;;;;;;;8.65;3.13;;;;;;;;;;5055941;28;20052;-71
2022/12/21 06:25:45;;;;;;;7.75;2.60;;;;;;;;;;5051700;28;20100;-73
2022/12/21 06:28:31;;;;;;;5.60;2.67;;;;;;;;;;5052910;28;20040;-74
2022/12/21 06:31:17;;;;;;;10.50;4.32;;;;;;;;;;5045495;28;20032;-72
2022/12/21 06:34:02;;;;;;;5.63;2.92;;;;;;;;;;5053869;28;20028;-74
2022/12/21 06:36:47;;;;;;;7.68;3.60;;;;;;;;;;5044817;28;20051;-73
2022/12/21 06:39:33;;;;;;;7.95;2.92;;;;;;;;;;5047834;28;20118;-74
2022/12/21 06:42:18;;;;;;;8.30;3.17;;;;;;;;;;5058720;28;20584;-71
2022/12/21 06:45:03;;;;;;;10.05;3.03;;;;;;;;;;5063566;28;20032;-74
2022/12/21 06:47:51;;;;;;;9.23;3.42;;;;;;;;;;5053853;28;20660;-74
2022/12/21 06:50:37;;;;;;;6.15;3.15;;;;;;;;;;5058261;28;20036;-73
2022/12/21 06:53:22;;;;;;;6.15;2.75;;;;;;;;;;5059892;28;20019;-75
2022/12/21 06:56:19;;;;;;;12.30;3.42;;;;;;;;;;5055027;28;20040;-79
2022/12/21 06:59:04;;;;;;;7.35;2.90;;;;;;;;;;5056409;28;20510;-72
2022/12/21 07:01:49;;;;;;;9.25;3.72;;;;;;;;;;5056302;28;20541;-74
2022/12/21 07:04:34;;;;;;;7.07;2.97;;;;;;;;;;5054057;28;20032;-76
2022/12/21 07:07:20;;;;;;;10.20;3.40;;;;;;;;;;5048927;28;20115;-76
2022/12/21 07:10:06;;;;;;;5.97;2.67;;;;;;;;;;5045315;28;20068;-64
2022/12/21 07:12:51;;;;;;;6.60;2.90;;;;;;;;;;5046679;28;20165;-63
2022/12/21 07:15:36;;;;;;;8.73;3.78;;;;;;;;;;5050971;28;20077;-63
2022/12/21 07:18:22;;;;;;;6.72;3.17;;;;;;;;;;5050519;28;20028;-64
2022/12/21 07:21:09;;;;;;;11.95;4.13;;;;;;;;;;5047609;28;20712;-61
2022/12/21 07:23:55;;;;;;;6.85;3.40;;;;;;;;;;5045876;28;20117;-62
2022/12/21 07:26:40;;;;;;;5.65;2.53;;;;;;;;;;5055280;28;20033;-63
2022/12/21 07:29:25;;;;;;;8.60;3.35;;;;;;;;;;5055148;28;20036;-62
2022/12/21 07:32:10;;;;;;;14.40;3.40;;;;;;;;;;5052930;28;20036;-63
2022/12/21 07:34:56;;;;;;;6.97;2.97;;;;;;;;;;5053268;28;20488;-73
2022/12/21 07:37:41;;;;;;;10.45;3.53;;;;;;;;;;5051684;28;20031;-75
2022/12/21 07:40:26;;;;;;;8.18;3.80;;;;;;;;;;5052555;28;20024;-72
2022/12/21 07:43:11;;;;;;;7.72;3.67;;;;;;;;;;5055492;28;20036;-69
2022/12/21 07:45:56;;;;;;;7.68;3.55;;;;;;;;;;5055355;28;20037;-69
2022/12/21 07:48:42;;;;;;;8.50;3.00;;;;;;;;;;5050823;28;20497;-69
2022/12/21 07:51:27;;;;;;;4.68;2.72;;;;;;;;;;5056599;28;20108;-68
2022/12/21 07:54:12;;;;;;;6.63;3.22;;;;;;;;;;5056083;28;20028;-72
2022/12/21 07:56:59;;;;;;;6.68;2.60;;;;;;;;;;5064966;28;20048;-68
2022/12/21 07:59:45;;;;;;;9.27;4.15;;;;;;;;;;5047394;28;20075;-71
2022/12/21 08:02:30;;;;;;;8.70;2.92;;;;;;;;;;5050734;28;20044;-70
2022/12/21 08:05:15;;;;;;;6.32;3.13;;;;;;;;;;5059679;28;20032;-69
2022/12/21 08:08:02;;;;;;;7.85;3.85;;;;;;;;;;5052678;28;20097;-72
2022/12/21 08:10:47;;;;;;;6.53;3.10;;;;;;;;;;5054596;28;20643;-69
2022/12/21 08:13:32;;;;;;;6.32;2.88;;;;;;;;;;5056334;28;20043;-78
2022/12/21 08:16:18;;;;;;;4.90;2.97;;;;;;;;;;5054004;28;20037;-72
2022/12/21 08:19:03;;;;;;;5.65;2.65;;;;;;;;;;5058162;28;20032;-72
2022/12/21 08:21:48;;;;;;;5.22;2.42;;;;;;;;;;5055874;28;20040;-70
2022/12/21 08:24:34;;;;;;;7.47;3.13;;;;;;;;;;5052965;28;20075;-70
2022/12/21 08:27:19;;;;;;;6.63;2.90;;;;;;;;;;5060113;28;20028;-71
2022/12/21 08:30:04;;;;;;;4.80;3.15;;;;;;;;;;5068081;28;20054;-74
2022/12/21 08:32:50;;;;;;;4.82;3.03;;;;;;;;;;5053094;28;20078;-70
2022/12/21 08:35:35;;;;;;;3.97;2.65;;;;;;;;;;5057026;28;20043;-78
2022/12/21 08:38:21;;;;;;;7.28;3.08;;;;;;;;;;5054392;28;20037;-78
2022/12/21 08:41:06;;;;;;;6.32;2.95;;;;;;;;;;5033585;28;20367;-79
2022/12/21 08:43:51;;;;;;;5.72;2.70;;;;;;;;;;5055928;28;20075;-77
2022/12/21 08:46:36;;;;;;;8.13;2.95;;;;;;;;;;5055874;28;20062;-78
2022/12/21 08:49:22;;;;;;;9.40;3.08;;;;;;;;;;5049826;28;20028;-72
2022/12/21 08:52:07;;;;;;;7.03;3.00;;;;;;;;;;5053332;28;20031;-72
2022/12/21 08:54:52;;;;;;;5.90;3.00;;;;;;;;;;5051392;28;20054;-69
2022/12/21 08:57:37;;;;;;;4.15;2.60;;;;;;;;;;5049930;28;20024;-70
2022/12/21 09:00:24;;;;;;;8.70;3.30;;;;;;;;;;5054337;28;20388;-70
2022/12/21 09:03:09;;;;;;;10.82;2.80;;;;;;;;;;5063749;28;20548;-68
2022/12/21 09:05:55;;;;;;;4.38;2.05;;;;;;;;;;5053319;28;20035;-71
2022/12/21 09:08:42;;;;;;;5.15;2.58;;;;;;;;;;5055275;28;20031;-76
2022/12/21 09:11:27;;;;;;;4.25;2.38;;;;;;;;;;5043706;28;20029;-70
2022/12/21 09:14:12;;;;;;;4.75;2.47;;;;;;;;;;5053453;28;20067;-71
2022/12/21 09:16:58;;;;;;;7.43;2.42;;;;;;;;;;5056772;28;20116;-71
2022/12/21 09:19:43;;;;;;;6.35;2.60;;;;;;;;;;5052204;28;20047;-73
2022/12/21 09:22:28;;;;;;;6.10;2.80;;;;;;;;;;5056654;28;20044;-73
2022/12/21 09:25:14;;;;;;;4.88;2.63;;;;;;;;;;5048608;28;20105;-73
2022/12/21 09:28:00;;;;;;;9.82;3.10;;;;;;;;;;5049375;28;20274;-70
2022/12/21 09:30:45;;;;;;;6.57;3.05;;;;;;;;;;5054198;28;20404;-76
2022/12/21 09:33:30;;;;;;;4.53;2.70;;;;;;;;;;5057915;28;20032;-74
2022/12/21 09:36:16;;;;;;;5.22;2.42;;;;;;;;;;5054853;28;20028;-75
2022/12/21 09:39:02;;;;;;;8.80;2.70;;;;;;;;;;5038696;28;20047;-73
2022/12/21 09:41:58;;;;;;;5.88;2.22;;;;;;;;;;5055885;28;20020;-75
2022/12/21 09:44:51;;;;;;;7.90;2.88;;;;;;;;;;5045804;28;20036;-73
2022/12/21 09:47:58;;;;;;;5.70;3.22;;;;;;;;;;5058003;28;20116;-72
2022/12/21 09:50:45;;;;;;;9.25;3.03;;;;;;;;;;5049282;28;20171;-71
2022/12/21 09:53:52;;;;;;;4.78;2.50;;;;;;;;;;5048434;28;20033;-68
2022/12/21 09:56:39;;;;;;;4.78;2.60;;;;;;;;;;5049813;28;20050;-69
2022/12/21 09:59:24;;;;;;;5.40;2.90;;;;;;;;;;5058544;28;20055;-69
2022/12/21 10:02:31;;;;;;;4.78;2.90;;;;;;;;;;5050394;28;20037;-70
2022/12/21 10:05:16;;;;;;;5.72;2.42;;;;;;;;;;5063927;28;20293;-76
2022/12/21 10:08:01;;;;;;;6.70;2.95;;;;;;;;;;5048453;28;20044;-69
2022/12/21 10:10:52;;;;;;;6.30;3.17;;;;;;;;;;5040517;28;20040;-71
2022/12/21 10:13:44;;;;;;;4.18;2.42;;;;;;;;;;5047301;28;20107;-71
2022/12/21 10:16:53;;;;;;;5.93;2.55;;;;;;;;;;5048664;28;20035;-70
2022/12/21 10:19:57;;;;;;;4.67;2.67;;;;;;;;;;5050419;28;20031;-70
2022/12/21 10:22:45;;;;;;;6.53;4.10;;;;;;;;;;5054249;28;20036;-72
2022/12/21 10:25:42;;;;;;;6.00;2.55;;;;;;;;;;5047248;28;20131;-76
2022/12/21 10:28:30;;;;;;;4.32;2.30;;;;;;;;;;5061044;28;20747;-74
2022/12/21 10:31:27;;;;;;;4.68;2.85;;;;;;;;;;5046200;28;20047;-75
2022/12/21 10:34:30;;;;;;;4.82;2.65;;;;;;;;;;5054433;28;20529;-75
2022/12/21 10:37:19;;;;;;;5.78;2.58;;;;;;;;;;5057054;28;20040;-76
2022/12/21 10:40:05;;;;;;;3.42;2.30;;;;;;;;;;5062887;28;20034;-70
2022/12/21 10:42:51;;;;;;;6.32;2.97;;;;;;;;;;5051032;28;20494;-74
2022/12/21 10:45:36;;;;;;;4.30;2.60;;;;;;;;;;5052953;28;20033;-76
2022/12/21 10:48:22;;;;;;;3.08;2.38;;;;;;;;;;5045776;28;20033;-73
2022/12/21 10:51:13;;;;;;;6.43;2.78;;;;;;;;;;5047385;28;20036;-73
2022/12/21 10:54:00;;;;;;;7.65;2.92;;;;;;;;;;5058827;28;20032;-74
2022/12/21 10:56:49;;;;;;;5.00;3.38;;;;;;;;;;5050088;28;20035;-74
2022/12/21 10:59:39;;;;;;;5.15;2.53;;;;;;;;;;5046054;28;20127;-70
2022/12/21 11:02:34;;;;;;;7.20;2.78;;;;;;;;;;5042337;28;20037;-73
2022/12/21 11:05:28;;;;;;;8.57;2.75;;;;;;;;;;5055177;28;20572;-73
2022/12/21 11:08:13;;;;;;;3.95;2.40;;;;;;;;;;5049865;28;20048;-72
2022/12/21 11:11:03;;;;;;;5.05;2.42;;;;;;;;;;5053343;28;20068;-74
2022/12/21 11:13:48;;;;;;;;;;;;;;;;;;5052674;28;20033;-73
2022/12/21 11:16:33;;;;;;;6.05;2.72;;;;;;;;;;5040666;28;19920;-70
2022/12/21 11:19:20;;;;;;;4.68;3.00;;;;;;;;;;5053660;28;20032;-70
2022/12/21 11:22:06;;;;;;;5.10;2.40;;;;;;;;;;5044704;28;20079;-70
2022/12/21 11:24:53;;;;;;;4.22;2.63;;;;;;;;;;5052731;28;20070;-68
2022/12/21 11:27:38;;;;;;;4.28;2.20;;;;;;;;;;5054599;28;20040;-69
2022/12/21 11:30:29;;;;;;;5.60;2.35;;;;;;;;;;5055903;28;20487;-70
2022/12/21 11:33:18;;;;;;;4.13;2.58;;;;;;;;;;5057376;28;20032;-72
2022/12/21 11:36:07;;;;;;;5.35;3.33;;;;;;;;;;5058859;28;20124;-69
2022/12/21 11:38:53;;;;;;;4.38;3.08;;;;;;;;;;5059153;28;20424;-70
2022/12/21 11:41:49;;;;;;;5.43;3.10;;;;;;;;;;5075010;28;20036;-70
2022/12/21 11:44:34;;;;;;;5.38;2.70;;;;;;;;;;5062034;28;20028;-71
2022/12/21 11:47:20;;;;;;;5.82;2.67;;;;;;;;;;5057631;28;20036;-71
2022/12/21 11:50:11;;;;;;;8.68;3.00;;;;;;;;;;5063575;28;20024;-71
2022/12/21 11:53:06;;;;;;;6.82;2.65;;;;;;;;;;5053013;28;20033;-74
2022/12/21 11:56:04;;;;;;;4.72;2.55;;;;;;;;;;5051312;28;20435;-67
2022/12/21 11:59:04;;;;;;;3.85;2.25;;;;;;;;;;5051413;28;20037;-75
2022/12/21 12:01:55;;;;;;;6.13;2.22;;;;;;;;;;5062442;28;20073;-76
2022/12/21 12:04:50;;;;;;;5.43;2.53;;;;;;;;;;5048322;28;20036;-73
2022/12/21 12:07:47;;;;;;;6.90;2.58;;;;;;;;;;5053543;28;20040;-72
2022/12/21 12:10:51;;;;;;;5.35;2.40;;;;;;;;;;5054764;28;20045;-73
2022/12/21 12:13:37;;;;;;;4.00;2.30;;;;;;;;;;5058980;28;20028;-76
2022/12/21 12:16:29;;;;;;;4.10;2.40;;;;;;;;;;5059791;28;20073;-70
2022/12/21 12:19:44;;;;;;;2.50;1.90;;;;;;;;;;5065538;28;20211;-72
2022/12/21 12:22:44;;;;;;;2.67;1.92;;;;;;;;;;5051760;28;20097;-72
2022/12/21 12:25:42;;;;;;;3.03;2.10;;;;;;;;;;5054610;28;20041;-71
2022/12/21 12:28:39;;;;;;;4.13;2.13;;;;;;;;;;5054984;28;20063;-71
2022/12/21 12:31:24;;;;;;;2.17;1.55;;;;;;;;;;5052089;28;20037;-72
2022/12/21 12:34:22;;;;;;;3.55;2.20;;;;;;;;;;5052814;28;20040;-76
2022/12/21 12:37:17;;;;;;;5.97;1.80;;;;;;;;;;5054787;28;20040;-74
2022/12/21 12:40:16;;;;;;;5.22;2.72;;;;;;;;;;5047105;28;20333;-75
2022/12/21 12:43:04;;;;;;;7.82;2.17;;;;;;;;;;5035004;28;20043;-74
2022/12/21 12:46:12;;;;;;;3.05;1.98;;;;;;;;;;5065874;28;20038;-75
2022/12/21 12:48:57;;;;;;;2.70;1.88;;;;;;;;;;5036223;28;20029;-72
2022/12/21 12:51:49;;;;;;;2.08;1.63;;;;;;;;;;5038109;28;20050;-74
2022/12/21 12:54:52;;;;;;;4.13;2.22;;;;;;;;;;5051673;28;20028;-61
2022/12/21 12:57:44;;;;;;;1.45;1.33;;;;;;;;;;5054217;28;20471;-60
2022/12/21 13:00:33;;;;;;;2.15;1.70;;;;;;;;;;5050557;28;20105;-63
2022/12/21 13:03:18;;;;;;;2.53;1.58;;;;;;;;;;5048157;28;20028;-77
2022/12/21 13:06:19;;;;;;;2.50;1.58;;;;;;;;;;5053314;28;20076;-75
2022/12/21 13:09:16;;;;;;;3.28;1.88;;;;;;;;;;5048198;28;20037;-73
2022/12/21 13:12:11;;;;;;;4.18;1.50;;;;;;;;;;5052251;28;20028;-71
2022/12/21 13:15:03;;;;;;;2.50;1.52;;;;;;;;;;5061541;28;20104;-70
2022/12/21 13:18:00;;;;;;;4.30;2.15;;;;;;;;;;5060206;28;20035;-71
2022/12/21 13:20:46;;;;;;;3.72;1.75;;;;;;;;;;5055065;28;20511;-70
2022/12/21 13:23:47;;;;;;;2.45;1.35;;;;;;;;;;5049589;28;20131;-74
2022/12/21 13:26:36;;;;;;;2.38;1.75;;;;;;;;;;5050952;28;20039;-68
2022/12/21 13:29:44;;;;;;;2.53;1.50;;;;;;;;;;5056871;28;20040;-74
2022/12/21 13:32:33;;;;;;;2.13;1.50;;;;;;;;;;5048387;28;20795;-74
2022/12/21 13:35:24;;;;;;;2.67;1.35;;;;;;;;;;5052794;28;20032;-73
2022/12/21 13:38:14;;;;;;;5.80;1.67;;;;;;;;;;5052085;28;20040;-76
2022/12/21 13:41:02;;;;;;;4.45;1.55;;;;;;;;;;5050078;28;20033;-77
2022/12/21 13:43:53;;;;;;;4.43;1.40;;;;;;;;;;5053396;28;20425;-75
2022/12/21 13:46:41;;;;;;;3.60;1.65;;;;;;;;;;5042248;28;20085;-72
2022/12/21 13:49:34;;;;;;;3.10;1.60;;;;;;;;;;5057171;28;20121;-74
2022/12/21 13:52:22;;;;;;;6.82;2.15;;;;;;;;;;5049936;28;20032;-74
2022/12/21 13:55:19;;;;;;;3.85;1.80;;;;;;;;;;5040040;28;20119;-75
2022/12/21 13:58:23;;;;;;;6.07;2.38;;;;;;;;;;5052362;28;20501;-73
2022/12/21 14:01:27;;;;;;;3.83;2.17;;;;;;;;;;5045306;28;20501;-76
2022/12/21 14:04:35;;;;;;;6.82;2.38;;;;;;;;;;5047844;28;20378;-70
2022/12/21 14:07:39;;;;;;;4.70;2.53;;;;;;;;;;5052785;28;20098;-72
2022/12/21 14:10:31;;;;;;;5.32;1.90;;;;;;;;;;5051340;28;20491;-71
2022/12/21 14:13:16;;;;;;;5.55;2.20;;;;;;;;;;5050231;28;20040;-70
2022/12/21 14:16:14;;;;;;;3.80;1.65;;;;;;;;;;5041524;28;20041;-71
2022/12/21 14:19:01;;;;;;;3.85;2.42;;;;;;;;;;5054305;28;20036;-71
2022/12/21 14:21:47;;;;;;;4.45;2.20;;;;;;;;;;5064254;28;20032;-77
2022/12/21 14:24:33;;;;;;;3.97;2.10;;;;;;;;;;5059447;28;20036;-71
2022/12/21 14:27:19;;;;;;;5.95;2.38;;;;;;;;;;5053622;28;20041;-71
2022/12/21 14:30:13;;;;;;;3.28;1.65;;;;;;;;;;5052967;28;20034;-73
2022/12/21 14:33:01;;;;;;;3.33;2.15;;;;;;;;;;5076262;28;20039;-72
2022/12/21 14:36:06;;;;;;;4.40;1.77;;;;;;;;;;5062843;28;20044;-76
2022/12/21 14:39:01;;;;;;;2.90;1.92;;;;;;;;;;5042373;28;20037;-73
2022/12/21 14:41:46;;;;;;;2.72;1.77;;;;;;;;;;5045104;28;20391;-75
2022/12/21 14:44:31;;;;;;;5.20;2.30;;;;;;;;;;5055483;28;20083;-74
2022/12/21 14:47:16;;;;;;;4.75;2.00;;;;;;;;;;5033122;28;20040;-73
2022/12/21 14:50:20;;;;;;;5.95;2.38;;;;;;;;;;5051058;28;20099;-74
2022/12/21 14:53:29;;;;;;;4.43;2.08;;;;;;;;;;5064916;28;20037;-73
2022/12/21 14:56:15;;;;;;;3.97;2.20;;;;;;;;;;5047770;28;20039;-73
2022/12/21 14:59:03;;;;;;;6.50;2.30;;;;;;;;;;5052049;28;20487;-72
2022/12/21 15:01:54;;;;;;;4.05;2.28;;;;;;;;;;5057960;28;20048;-72
2022/12/21 15:04:43;;;;;;;3.75;2.67;;;;;;;;;;5061610;28;20046;-73
2022/12/21 15:07:39;;;;;;;3.63;2.05;;;;;;;;;;5051416;28;20100;-72
2022/12/21 15:10:29;;;;;;;7.68;2.70;;;;;;;;;;5034413;28;20045;-74
2022/12/21 15:13:20;;;;;;;8.00;2.55;;;;;;;;;;5052815;28;20099;-74
2022/12/21 15:16:17;;;;;;;4.25;2.45;;;;;;;;;;5040512;28;20024;-74
2022/12/21 15:19:08;;;;;;;3.25;2.20;;;;;;;;;;5053399;28;20025;-73
2022/12/21 15:22:08;;;;;;;3.30;1.77;;;;;;;;;;5052064;28;20028;-74
2022/12/21 15:24:55;;;;;;;8.73;2.83;;;;;;;;;;5045442;28;20029;-75
2022/12/21 15:27:57;;;;;;;3.70;2.00;;;;;;;;;;5048591;28;21268;-74
2022/12/21 15:30:45;;;;;;;4.80;2.17;;;;;;;;;;5047458;28;20036;-77
2022/12/21 15:33:37;;;;;;;5.20;2.33;;;;;;;;;;5047725;28;20410;-74
2022/12/21 15:36:29;;;;;;;7.88;3.90;;;;;;;;;;5040999;28;20024;-73
2022/12/21 15:39:22;;;;;;;4.30;2.72;;;;;;;;;;5052669;28;20040;-66
2022/12/21 15:42:13;;;;;;;6.30;3.00;;;;;;;;;;5055353;28;20040;-65
2022/12/21 15:45:05;;;;;;;8.18;3.08;;;;;;;;;;5060502;28;20176;-65
2022/12/21 15:47:56;;;;;;;9.48;4.07;;;;;;;;;;5054369;28;20071;-67
2022/12/21 15:50:42;;;;;;;6.05;2.88;;;;;;;;;;5057886;28;20204;-64
2022/12/21 15:53:30;;;;;;;10.57;3.83;;;;;;;;;;5062641;28;20105;-72
2022/12/21 15:56:18;;;;;;;8.23;4.10;;;;;;;;;;5067151;28;20028;-71
2022/12/21 15:59:04;;;;;;;7.72;3.92;;;;;;;;;;5059772;28;20467;-73
2022/12/21 16:01:51;;;;;;;8.50;3.65;;;;;;;;;;5063828;28;20327;-70
2022/12/21 16:04:42;;;;;;;6.28;3.60;;;;;;;;;;5059089;28;20052;-72
2022/12/21 16:07:28;;;;;;;10.00;3.63;;;;;;;;;;5054542;28;20052;-71
2022/12/21 16:10:16;;;;;;;7.72;3.10;;;;;;;;;;5052780;28;20028;-72
2022/12/21 16:13:02;;;;;;;6.28;3.00;;;;;;;;;;5054995;28;20032;-70
2022/12/21 16:15:48;;;;;;;7.43;4.18;;;;;;;;;;5049761;28;20556;-78
2022/12/21 16:18:34;;;;;;;10.10;4.22;;;;;;;;;;5059609;28;20039;-73
2022/12/21 16:21:27;;;;;;;7.57;4.35;;;;;;;;;;5053283;28;20032;-79
2022/12/21 16:24:12;;;;;;;11.73;3.92;;;;;;;;;;5046770;28;20024;-78
2022/12/21 16:26:58;;;;;;;9.23;4.70;;;;;;;;;;5059395;28;20490;-77
2022/12/21 16:29:47;;;;;;;9.13;4.88;;;;;;;;;;5065423;28;20036;-77
2022/12/21 16:32:32;;;;;;;10.68;5.22;;;;;;;;;;5038728;28;20403;-72
2022/12/21 16:35:19;;;;;;;8.23;4.70;;;;;;;;;;5042371;28;20048;-74
2022/12/21 16:38:07;;;;;;;10.85;5.53;;;;;;;;;;5053263;28;20111;-71
2022/12/21 16:40:52;;;;;;;10.70;6.13;;;;;;;;;;5059519;28;20028;-71
2022/12/21 16:43:37;;;;;;;12.98;6.43;;;;;;;;;;5058838;28;20044;-71
2022/12/21 16:46:28;;;;;;;14.13;8.15;;;;;;;;;;5058951;28;20416;-69
2022/12/21 16:49:25;;;;;;;17.75;8.60;;;;;;;;;;5062798;28;20082;-73
2022/12/21 16:52:29;;;;;;;13.48;7.78;;;;;;;;;;5054803;28;20021;-70
2022/12/21 16:55:15;;;;;;;13.35;7.10;;;;;;;;;;5051783;28;20377;-72
2022/12/21 16:58:08;;;;;;;14.25;8.20;;;;;;;;;;5056804;28;20727;-72
2022/12/21 17:00:53;;;;;;;17.33;8.63;;;;;;;;;;5059116;28;20318;-71
2022/12/21 17:03:39;;;;;;;15.20;7.90;;;;;;;;;;5060511;28;20043;-71